sensor_id;sensor_type;location;lat;lon;timestamp;P1;durP1;ratioP1;P2;durP2;ratioP2
55065;SDS011;40964;42.114;24.220;2023-06-22T00:01:00;9.07;;;6.88;;
55065;SDS011;40964;42.114;24.220;2023-06-22T00:03:25;9.88;;;7.38;;
55065;SDS011;40964;42.114;24.220;2023-06-22T00:05:51;9.32;;;6.82;;
55065;SDS011;40964;42.114;24.220;2023-06-22T00:08:18;10.05;;;7.05;;
55065;SDS011;40964;42.114;24.220;2023-06-22T00:10:44;9.38;;;7.13;;
55065;SDS011;40964;42.114;24.220;2023-06-22T00:13:11;9.05;;;7.05;;
55065;SDS011;40964;42.114;24.220;2023-06-22T00:15:37;9.80;;;6.88;;
55065;SDS011;40964;42.114;24.220;2023-06-22T00:18:05;11.10;;;7.00;;
55065;SDS011;40964;42.114;24.220;2023-06-22T00:20:34;10.02;;;7.53;;
55065;SDS011;40964;42.114;24.220;2023-06-22T00:23:02;9.70;;;6.82;;
55065;SDS011;40964;42.114;24.220;2023-06-22T00:25:31;10.20;;;6.93;;
55065;SDS011;40964;42.114;24.220;2023-06-22T00:27:56;9.52;;;6.70;;
55065;SDS011;40964;42.114;24.220;2023-06-22T00:30:22;9.80;;;6.63;;
55065;SDS011;40964;42.114;24.220;2023-06-22T00:32:47;9.25;;;6.50;;
55065;SDS011;40964;42.114;24.220;2023-06-22T00:35:13;9.15;;;6.93;;
55065;SDS011;40964;42.114;24.220;2023-06-22T00:37:38;9.77;;;6.93;;
55065;SDS011;40964;42.114;24.220;2023-06-22T00:40:07;9.57;;;6.80;;
55065;SDS011;40964;42.114;24.220;2023-06-22T00:42:36;12.40;;;8.45;;
55065;SDS011;40964;42.114;24.220;2023-06-22T00:45:01;9.80;;;6.95;;
55065;SDS011;40964;42.114;24.220;2023-06-22T00:47:27;11.00;;;7.63;;
55065;SDS011;40964;42.114;24.220;2023-06-22T00:49:53;11.10;;;7.85;;
55065;SDS011;40964;42.114;24.220;2023-06-22T00:52:21;10.85;;;7.63;;
55065;SDS011;40964;42.114;24.220;2023-06-22T00:54:54;11.65;;;7.30;;
55065;SDS011;40964;42.114;24.220;2023-06-22T00:57:20;8.60;;;6.70;;
55065;SDS011;40964;42.114;24.220;2023-06-22T00:59:47;11.00;;;6.95;;
55065;SDS011;40964;42.114;24.220;2023-06-22T01:02:13;12.10;;;7.65;;
55065;SDS011;40964;42.114;24.220;2023-06-22T01:04:40;14.30;;;9.25;;
55065;SDS011;40964;42.114;24.220;2023-06-22T01:10:24;12.00;;;7.33;;
55065;SDS011;40964;42.114;24.220;2023-06-22T01:13:04;11.80;;;7.25;;
55065;SDS011;40964;42.114;24.220;2023-06-22T01:15:51;9.85;;;7.22;;
55065;SDS011;40964;42.114;24.220;2023-06-22T01:18:40;9.50;;;7.30;;
55065;SDS011;40964;42.114;24.220;2023-06-22T01:21:07;11.52;;;7.20;;
55065;SDS011;40964;42.114;24.220;2023-06-22T01:23:43;16.63;;;8.35;;
55065;SDS011;40964;42.114;24.220;2023-06-22T01:26:22;14.82;;;7.22;;
55065;SDS011;40964;42.114;24.220;2023-06-22T01:28:55;10.73;;;7.65;;
55065;SDS011;40964;42.114;24.220;2023-06-22T01:31:24;9.80;;;7.10;;
55065;SDS011;40964;42.114;24.220;2023-06-22T01:33:53;10.77;;;7.53;;
55065;SDS011;40964;42.114;24.220;2023-06-22T01:36:21;13.52;;;7.00;;
55065;SDS011;40964;42.114;24.220;2023-06-22T01:38:48;10.05;;;7.22;;
55065;SDS011;40964;42.114;24.220;2023-06-22T01:41:14;13.80;;;7.25;;
55065;SDS011;40964;42.114;24.220;2023-06-22T01:43:42;11.05;;;7.28;;
55065;SDS011;40964;42.114;24.220;2023-06-22T01:46:08;12.75;;;7.38;;
55065;SDS011;40964;42.114;24.220;2023-06-22T01:48:34;10.40;;;7.18;;
55065;SDS011;40964;42.114;24.220;2023-06-22T01:50:59;10.77;;;7.75;;
55065;SDS011;40964;42.114;24.220;2023-06-22T01:53:25;12.00;;;7.45;;
55065;SDS011;40964;42.114;24.220;2023-06-22T01:55:51;15.13;;;7.53;;
55065;SDS011;40964;42.114;24.220;2023-06-22T01:58:16;12.23;;;7.63;;
55065;SDS011;40964;42.114;24.220;2023-06-22T02:00:49;11.45;;;7.68;;
55065;SDS011;40964;42.114;24.220;2023-06-22T02:03:31;10.98;;;7.95;;
55065;SDS011;40964;42.114;24.220;2023-06-22T02:06:10;12.07;;;7.18;;
55065;SDS011;40964;42.114;24.220;2023-06-22T02:08:41;13.82;;;7.93;;
55065;SDS011;40964;42.114;24.220;2023-06-22T02:11:17;12.18;;;8.10;;
55065;SDS011;40964;42.114;24.220;2023-06-22T02:13:45;11.70;;;8.00;;
55065;SDS011;40964;42.114;24.220;2023-06-22T02:16:11;14.07;;;7.88;;
55065;SDS011;40964;42.114;24.220;2023-06-22T02:18:38;12.25;;;8.02;;
55065;SDS011;40964;42.114;24.220;2023-06-22T02:21:05;12.68;;;8.27;;
55065;SDS011;40964;42.114;24.220;2023-06-22T02:23:31;12.10;;;7.70;;
55065;SDS011;40964;42.114;24.220;2023-06-22T02:25:59;11.50;;;7.93;;
55065;SDS011;40964;42.114;24.220;2023-06-22T02:28:25;10.88;;;7.40;;
55065;SDS011;40964;42.114;24.220;2023-06-22T02:30:51;12.65;;;7.30;;
55065;SDS011;40964;42.114;24.220;2023-06-22T02:33:16;13.90;;;7.95;;
55065;SDS011;40964;42.114;24.220;2023-06-22T02:35:42;12.60;;;8.55;;
55065;SDS011;40964;42.114;24.220;2023-06-22T02:38:10;15.10;;;7.78;;
55065;SDS011;40964;42.114;24.220;2023-06-22T02:40:36;11.60;;;8.02;;
55065;SDS011;40964;42.114;24.220;2023-06-22T02:43:01;12.82;;;8.15;;
55065;SDS011;40964;42.114;24.220;2023-06-22T02:45:28;11.65;;;8.15;;
55065;SDS011;40964;42.114;24.220;2023-06-22T02:47:53;12.02;;;7.93;;
55065;SDS011;40964;42.114;24.220;2023-06-22T02:50:20;14.45;;;8.35;;
55065;SDS011;40964;42.114;24.220;2023-06-22T02:52:45;13.45;;;8.23;;
55065;SDS011;40964;42.114;24.220;2023-06-22T02:55:11;16.80;;;8.10;;
55065;SDS011;40964;42.114;24.220;2023-06-22T02:57:37;13.38;;;8.93;;
55065;SDS011;40964;42.114;24.220;2023-06-22T03:00:02;11.15;;;7.93;;
55065;SDS011;40964;42.114;24.220;2023-06-22T03:02:41;16.90;;;8.85;;
55065;SDS011;40964;42.114;24.220;2023-06-22T03:05:07;16.05;;;10.25;;
55065;SDS011;40964;42.114;24.220;2023-06-22T03:07:41;15.15;;;9.77;;
55065;SDS011;40964;42.114;24.220;2023-06-22T03:10:10;13.73;;;8.70;;
55065;SDS011;40964;42.114;24.220;2023-06-22T03:15:25;16.08;;;9.15;;
55065;SDS011;40964;42.114;24.220;2023-06-22T03:17:51;15.68;;;9.38;;
55065;SDS011;40964;42.114;24.220;2023-06-22T03:20:16;18.02;;;9.50;;
55065;SDS011;40964;42.114;24.220;2023-06-22T03:22:41;16.00;;;8.65;;
55065;SDS011;40964;42.114;24.220;2023-06-22T03:25:08;13.55;;;8.55;;
55065;SDS011;40964;42.114;24.220;2023-06-22T03:27:40;13.77;;;8.68;;
55065;SDS011;40964;42.114;24.220;2023-06-22T03:30:07;14.65;;;9.05;;
55065;SDS011;40964;42.114;24.220;2023-06-22T03:32:34;20.10;;;9.15;;
55065;SDS011;40964;42.114;24.220;2023-06-22T03:35:00;12.98;;;8.27;;
55065;SDS011;40964;42.114;24.220;2023-06-22T03:37:27;15.77;;;8.20;;
55065;SDS011;40964;42.114;24.220;2023-06-22T03:39:53;14.55;;;9.88;;
55065;SDS011;40964;42.114;24.220;2023-06-22T03:42:19;17.35;;;9.80;;
55065;SDS011;40964;42.114;24.220;2023-06-22T03:44:44;13.63;;;8.20;;
55065;SDS011;40964;42.114;24.220;2023-06-22T03:47:10;11.55;;;8.25;;
55065;SDS011;40964;42.114;24.220;2023-06-22T03:49:35;13.25;;;7.78;;
55065;SDS011;40964;42.114;24.220;2023-06-22T03:52:01;11.13;;;7.82;;
55065;SDS011;40964;42.114;24.220;2023-06-22T03:54:29;12.23;;;8.70;;
55065;SDS011;40964;42.114;24.220;2023-06-22T03:56:57;11.02;;;7.97;;
55065;SDS011;40964;42.114;24.220;2023-06-22T03:59:23;12.35;;;8.35;;
55065;SDS011;40964;42.114;24.220;2023-06-22T04:01:49;12.93;;;8.23;;
55065;SDS011;40964;42.114;24.220;2023-06-22T04:04:15;13.75;;;9.27;;
55065;SDS011;40964;42.114;24.220;2023-06-22T04:06:42;13.73;;;7.90;;
55065;SDS011;40964;42.114;24.220;2023-06-22T04:09:08;14.27;;;8.77;;
55065;SDS011;40964;42.114;24.220;2023-06-22T04:11:33;10.85;;;8.48;;
55065;SDS011;40964;42.114;24.220;2023-06-22T04:13:59;14.73;;;9.85;;
55065;SDS011;40964;42.114;24.220;2023-06-22T04:16:25;11.18;;;8.90;;
55065;SDS011;40964;42.114;24.220;2023-06-22T04:18:50;12.80;;;9.55;;
55065;SDS011;40964;42.114;24.220;2023-06-22T04:21:16;13.80;;;9.25;;
55065;SDS011;40964;42.114;24.220;2023-06-22T04:23:41;12.45;;;8.73;;
55065;SDS011;40964;42.114;24.220;2023-06-22T04:26:08;11.93;;;9.00;;
55065;SDS011;40964;42.114;24.220;2023-06-22T04:28:33;12.70;;;8.82;;
55065;SDS011;40964;42.114;24.220;2023-06-22T04:31:03;15.40;;;9.60;;
55065;SDS011;40964;42.114;24.220;2023-06-22T04:33:28;14.38;;;8.85;;
55065;SDS011;40964;42.114;24.220;2023-06-22T04:35:54;15.52;;;9.05;;
55065;SDS011;40964;42.114;24.220;2023-06-22T04:38:22;12.38;;;8.00;;
55065;SDS011;40964;42.114;24.220;2023-06-22T04:40:48;11.25;;;8.35;;
55065;SDS011;40964;42.114;24.220;2023-06-22T04:43:13;11.80;;;8.23;;
55065;SDS011;40964;42.114;24.220;2023-06-22T04:45:39;13.93;;;9.20;;
55065;SDS011;40964;42.114;24.220;2023-06-22T04:48:05;14.02;;;9.90;;
55065;SDS011;40964;42.114;24.220;2023-06-22T04:50:31;15.65;;;10.80;;
55065;SDS011;40964;42.114;24.220;2023-06-22T04:52:56;13.48;;;9.95;;
55065;SDS011;40964;42.114;24.220;2023-06-22T04:55:22;13.48;;;10.73;;
55065;SDS011;40964;42.114;24.220;2023-06-22T04:57:51;14.93;;;10.60;;
55065;SDS011;40964;42.114;24.220;2023-06-22T05:00:19;12.98;;;9.95;;
55065;SDS011;40964;42.114;24.220;2023-06-22T05:02:48;13.68;;;9.90;;
55065;SDS011;40964;42.114;24.220;2023-06-22T05:05:14;12.63;;;9.77;;
55065;SDS011;40964;42.114;24.220;2023-06-22T05:07:44;12.65;;;9.75;;
55065;SDS011;40964;42.114;24.220;2023-06-22T05:10:13;11.50;;;9.40;;
55065;SDS011;40964;42.114;24.220;2023-06-22T05:12:39;12.23;;;9.38;;
55065;SDS011;40964;42.114;24.220;2023-06-22T05:15:06;13.10;;;9.82;;
55065;SDS011;40964;42.114;24.220;2023-06-22T05:17:32;14.43;;;9.15;;
55065;SDS011;40964;42.114;24.220;2023-06-22T05:19:58;12.57;;;9.32;;
55065;SDS011;40964;42.114;24.220;2023-06-22T05:22:23;12.20;;;8.70;;
55065;SDS011;40964;42.114;24.220;2023-06-22T05:24:49;13.57;;;9.05;;
55065;SDS011;40964;42.114;24.220;2023-06-22T05:27:14;12.73;;;8.98;;
55065;SDS011;40964;42.114;24.220;2023-06-22T05:29:40;13.57;;;9.85;;
55065;SDS011;40964;42.114;24.220;2023-06-22T05:32:06;12.55;;;9.38;;
55065;SDS011;40964;42.114;24.220;2023-06-22T05:34:32;12.05;;;9.20;;
55065;SDS011;40964;42.114;24.220;2023-06-22T05:36:57;13.35;;;8.50;;
55065;SDS011;40964;42.114;24.220;2023-06-22T05:39:26;12.80;;;8.68;;
55065;SDS011;40964;42.114;24.220;2023-06-22T05:41:51;13.05;;;9.82;;
55065;SDS011;40964;42.114;24.220;2023-06-22T05:44:17;11.77;;;9.20;;
55065;SDS011;40964;42.114;24.220;2023-06-22T05:46:43;11.02;;;9.05;;
55065;SDS011;40964;42.114;24.220;2023-06-22T05:49:11;12.57;;;9.88;;
55065;SDS011;40964;42.114;24.220;2023-06-22T05:51:37;10.77;;;8.43;;
55065;SDS011;40964;42.114;24.220;2023-06-22T05:54:03;12.30;;;9.07;;
55065;SDS011;40964;42.114;24.220;2023-06-22T05:56:28;10.85;;;8.00;;
55065;SDS011;40964;42.114;24.220;2023-06-22T05:58:53;11.00;;;8.82;;
55065;SDS011;40964;42.114;24.220;2023-06-22T06:01:19;12.00;;;7.97;;
55065;SDS011;40964;42.114;24.220;2023-06-22T06:03:45;12.45;;;8.43;;
55065;SDS011;40964;42.114;24.220;2023-06-22T06:06:10;11.13;;;8.70;;
55065;SDS011;40964;42.114;24.220;2023-06-22T06:08:37;10.75;;;8.80;;
55065;SDS011;40964;42.114;24.220;2023-06-22T06:11:03;11.77;;;9.45;;
55065;SDS011;40964;42.114;24.220;2023-06-22T06:13:29;10.95;;;8.55;;
55065;SDS011;40964;42.114;24.220;2023-06-22T06:15:54;12.57;;;8.63;;
55065;SDS011;40964;42.114;24.220;2023-06-22T06:18:21;30.50;;;16.23;;
55065;SDS011;40964;42.114;24.220;2023-06-22T06:20:46;32.92;;;16.67;;
55065;SDS011;40964;42.114;24.220;2023-06-22T06:23:12;18.17;;;10.50;;
55065;SDS011;40964;42.114;24.220;2023-06-22T06:25:37;11.63;;;9.18;;
55065;SDS011;40964;42.114;24.220;2023-06-22T06:28:03;11.45;;;9.10;;
55065;SDS011;40964;42.114;24.220;2023-06-22T06:30:29;12.55;;;9.25;;
55065;SDS011;40964;42.114;24.220;2023-06-22T06:32:54;14.27;;;9.40;;
55065;SDS011;40964;42.114;24.220;2023-06-22T06:35:20;12.75;;;9.35;;
55065;SDS011;40964;42.114;24.220;2023-06-22T06:37:47;9.68;;;8.38;;
55065;SDS011;40964;42.114;24.220;2023-06-22T06:40:14;10.25;;;8.30;;
55065;SDS011;40964;42.114;24.220;2023-06-22T06:42:41;11.55;;;8.00;;
55065;SDS011;40964;42.114;24.220;2023-06-22T06:45:10;9.85;;;8.63;;
55065;SDS011;40964;42.114;24.220;2023-06-22T06:47:49;9.50;;;8.30;;
55065;SDS011;40964;42.114;24.220;2023-06-22T06:50:15;11.80;;;8.57;;
55065;SDS011;40964;42.114;24.220;2023-06-22T06:52:42;11.35;;;8.02;;
55065;SDS011;40964;42.114;24.220;2023-06-22T06:55:07;12.57;;;10.00;;
55065;SDS011;40964;42.114;24.220;2023-06-22T06:57:37;10.80;;;7.95;;
55065;SDS011;40964;42.114;24.220;2023-06-22T07:00:06;9.90;;;7.70;;
55065;SDS011;40964;42.114;24.220;2023-06-22T07:02:37;9.32;;;7.22;;
55065;SDS011;40964;42.114;24.220;2023-06-22T07:05:05;11.68;;;7.38;;
55065;SDS011;40964;42.114;24.220;2023-06-22T07:07:31;10.63;;;7.10;;
55065;SDS011;40964;42.114;24.220;2023-06-22T07:09:56;9.10;;;6.97;;
55065;SDS011;40964;42.114;24.220;2023-06-22T07:12:22;9.70;;;7.03;;
55065;SDS011;40964;42.114;24.220;2023-06-22T07:14:48;8.57;;;7.07;;
55065;SDS011;40964;42.114;24.220;2023-06-22T07:17:13;8.00;;;7.18;;
55065;SDS011;40964;42.114;24.220;2023-06-22T07:19:39;8.55;;;7.20;;
55065;SDS011;40964;42.114;24.220;2023-06-22T07:22:07;8.68;;;7.32;;
55065;SDS011;40964;42.114;24.220;2023-06-22T07:24:32;11.75;;;7.30;;
55065;SDS011;40964;42.114;24.220;2023-06-22T07:26:58;8.98;;;7.05;;
55065;SDS011;40964;42.114;24.220;2023-06-22T07:29:24;11.93;;;9.05;;
55065;SDS011;40964;42.114;24.220;2023-06-22T07:31:50;8.85;;;7.40;;
55065;SDS011;40964;42.114;24.220;2023-06-22T07:34:16;8.32;;;7.43;;
55065;SDS011;40964;42.114;24.220;2023-06-22T07:36:42;13.32;;;7.68;;
55065;SDS011;40964;42.114;24.220;2023-06-22T07:39:08;11.05;;;7.38;;
55065;SDS011;40964;42.114;24.220;2023-06-22T07:41:34;8.10;;;7.15;;
55065;SDS011;40964;42.114;24.220;2023-06-22T07:43:59;10.27;;;7.15;;
55065;SDS011;40964;42.114;24.220;2023-06-22T07:46:25;9.27;;;6.75;;
55065;SDS011;40964;42.114;24.220;2023-06-22T07:48:50;9.80;;;7.00;;
55065;SDS011;40964;42.114;24.220;2023-06-22T07:51:16;7.60;;;6.70;;
55065;SDS011;40964;42.114;24.220;2023-06-22T07:53:42;7.70;;;6.20;;
55065;SDS011;40964;42.114;24.220;2023-06-22T07:56:11;9.05;;;6.75;;
55065;SDS011;40964;42.114;24.220;2023-06-22T07:58:37;7.47;;;6.70;;
55065;SDS011;40964;42.114;24.220;2023-06-22T08:01:03;8.65;;;6.68;;
55065;SDS011;40964;42.114;24.220;2023-06-22T08:03:29;6.97;;;6.28;;
55065;SDS011;40964;42.114;24.220;2023-06-22T08:05:54;8.88;;;6.38;;
55065;SDS011;40964;42.114;24.220;2023-06-22T08:08:20;7.03;;;6.30;;
55065;SDS011;40964;42.114;24.220;2023-06-22T08:10:45;7.10;;;5.68;;
55065;SDS011;40964;42.114;24.220;2023-06-22T08:13:11;7.50;;;6.15;;
55065;SDS011;40964;42.114;24.220;2023-06-22T08:15:37;7.35;;;5.55;;
55065;SDS011;40964;42.114;24.220;2023-06-22T08:18:02;7.78;;;6.15;;
55065;SDS011;40964;42.114;24.220;2023-06-22T08:20:28;7.30;;;6.03;;
55065;SDS011;40964;42.114;24.220;2023-06-22T08:22:53;6.28;;;5.68;;
55065;SDS011;40964;42.114;24.220;2023-06-22T08:25:23;11.02;;;6.50;;
55065;SDS011;40964;42.114;24.220;2023-06-22T08:27:48;6.75;;;5.90;;
55065;SDS011;40964;42.114;24.220;2023-06-22T08:30:14;7.20;;;6.07;;
55065;SDS011;40964;42.114;24.220;2023-06-22T08:32:40;7.75;;;6.50;;
55065;SDS011;40964;42.114;24.220;2023-06-22T08:35:05;6.60;;;5.90;;
55065;SDS011;40964;42.114;24.220;2023-06-22T08:37:34;6.95;;;6.05;;
55065;SDS011;40964;42.114;24.220;2023-06-22T08:40:01;6.93;;;5.47;;
55065;SDS011;40964;42.114;24.220;2023-06-22T08:42:31;8.13;;;5.68;;
55065;SDS011;40964;42.114;24.220;2023-06-22T08:44:56;6.10;;;5.50;;
55065;SDS011;40964;42.114;24.220;2023-06-22T08:47:22;9.15;;;6.80;;
55065;SDS011;40964;42.114;24.220;2023-06-22T08:49:48;6.80;;;6.10;;
55065;SDS011;40964;42.114;24.220;2023-06-22T08:52:14;7.75;;;6.32;;
55065;SDS011;40964;42.114;24.220;2023-06-22T08:54:40;7.72;;;6.15;;
55065;SDS011;40964;42.114;24.220;2023-06-22T08:57:05;7.05;;;6.35;;
55065;SDS011;40964;42.114;24.220;2023-06-22T08:59:31;11.02;;;6.65;;
55065;SDS011;40964;42.114;24.220;2023-06-22T09:01:56;7.45;;;6.00;;
55065;SDS011;40964;42.114;24.220;2023-06-22T09:04:22;6.28;;;5.68;;
55065;SDS011;40964;42.114;24.220;2023-06-22T09:06:48;8.15;;;6.90;;
55065;SDS011;40964;42.114;24.220;2023-06-22T09:09:15;6.53;;;5.40;;
55065;SDS011;40964;42.114;24.220;2023-06-22T09:11:41;7.47;;;6.00;;
55065;SDS011;40964;42.114;24.220;2023-06-22T09:14:07;7.57;;;5.90;;
55065;SDS011;40964;42.114;24.220;2023-06-22T09:16:33;8.35;;;6.00;;
55065;SDS011;40964;42.114;24.220;2023-06-22T09:18:59;6.68;;;5.40;;
55065;SDS011;40964;42.114;24.220;2023-06-22T09:21:25;6.40;;;5.70;;
55065;SDS011;40964;42.114;24.220;2023-06-22T09:23:50;6.38;;;5.78;;
55065;SDS011;40964;42.114;24.220;2023-06-22T09:26:17;9.13;;;6.53;;
55065;SDS011;40964;42.114;24.220;2023-06-22T09:28:43;7.00;;;5.65;;
55065;SDS011;40964;42.114;24.220;2023-06-22T09:31:08;6.97;;;6.28;;
55065;SDS011;40964;42.114;24.220;2023-06-22T09:33:35;9.38;;;6.88;;
55065;SDS011;40964;42.114;24.220;2023-06-22T09:36:01;8.07;;;6.13;;
55065;SDS011;40964;42.114;24.220;2023-06-22T09:38:26;9.45;;;7.30;;
55065;SDS011;40964;42.114;24.220;2023-06-22T09:40:52;7.32;;;6.63;;
55065;SDS011;40964;42.114;24.220;2023-06-22T09:43:17;7.32;;;6.28;;
55065;SDS011;40964;42.114;24.220;2023-06-22T09:45:43;6.88;;;6.18;;
55065;SDS011;40964;42.114;24.220;2023-06-22T09:48:08;7.30;;;6.40;;
55065;SDS011;40964;42.114;24.220;2023-06-22T09:50:35;7.72;;;6.72;;
55065;SDS011;40964;42.114;24.220;2023-06-22T09:53:01;8.02;;;6.07;;
55065;SDS011;40964;42.114;24.220;2023-06-22T09:55:27;7.05;;;6.35;;
55065;SDS011;40964;42.114;24.220;2023-06-22T09:57:52;7.07;;;6.38;;
55065;SDS011;40964;42.114;24.220;2023-06-22T10:00:19;8.35;;;5.65;;
55065;SDS011;40964;42.114;24.220;2023-06-22T10:02:45;7.40;;;6.32;;
55065;SDS011;40964;42.114;24.220;2023-06-22T10:05:11;8.00;;;5.85;;
55065;SDS011;40964;42.114;24.220;2023-06-22T10:07:36;7.10;;;6.32;;
55065;SDS011;40964;42.114;24.220;2023-06-22T10:10:07;7.32;;;6.50;;
55065;SDS011;40964;42.114;24.220;2023-06-22T10:12:33;7.18;;;6.47;;
55065;SDS011;40964;42.114;24.220;2023-06-22T10:14:59;13.13;;;7.25;;
55065;SDS011;40964;42.114;24.220;2023-06-22T10:17:24;9.55;;;6.28;;
55065;SDS011;40964;42.114;24.220;2023-06-22T10:19:49;6.50;;;5.90;;
55065;SDS011;40964;42.114;24.220;2023-06-22T10:22:15;7.93;;;6.00;;
55065;SDS011;40964;42.114;24.220;2023-06-22T10:24:40;7.45;;;6.40;;
55065;SDS011;40964;42.114;24.220;2023-06-22T10:27:10;7.35;;;6.15;;
55065;SDS011;40964;42.114;24.220;2023-06-22T10:29:36;8.23;;;5.95;;
55065;SDS011;40964;42.114;24.220;2023-06-22T10:32:01;7.00;;;6.30;;
55065;SDS011;40964;42.114;24.220;2023-06-22T10:34:27;7.30;;;6.22;;
55065;SDS011;40964;42.114;24.220;2023-06-22T10:36:52;7.78;;;6.47;;
55065;SDS011;40964;42.114;24.220;2023-06-22T10:39:18;8.40;;;6.63;;
55065;SDS011;40964;42.114;24.220;2023-06-22T10:41:43;7.10;;;6.32;;
55065;SDS011;40964;42.114;24.220;2023-06-22T10:44:09;6.60;;;5.90;;
55065;SDS011;40964;42.114;24.220;2023-06-22T10:46:34;7.63;;;6.60;;
55065;SDS011;40964;42.114;24.220;2023-06-22T10:49:00;7.75;;;6.95;;
55065;SDS011;40964;42.114;24.220;2023-06-22T10:51:25;7.95;;;6.57;;
55065;SDS011;40964;42.114;24.220;2023-06-22T10:53:51;9.27;;;6.88;;
55065;SDS011;40964;42.114;24.220;2023-06-22T10:56:17;7.30;;;6.50;;
55065;SDS011;40964;42.114;24.220;2023-06-22T10:58:44;7.78;;;6.30;;
55065;SDS011;40964;42.114;24.220;2023-06-22T11:01:10;8.50;;;6.43;;
55065;SDS011;40964;42.114;24.220;2023-06-22T11:03:35;7.10;;;6.40;;
55065;SDS011;40964;42.114;24.220;2023-06-22T11:06:00;6.72;;;5.85;;
55065;SDS011;40964;42.114;24.220;2023-06-22T11:08:26;8.43;;;6.45;;
55065;SDS011;40964;42.114;24.220;2023-06-22T11:10:51;8.43;;;5.97;;
55065;SDS011;40964;42.114;24.220;2023-06-22T11:13:17;7.70;;;6.32;;
55065;SDS011;40964;42.114;24.220;2023-06-22T11:15:43;11.90;;;6.50;;
55065;SDS011;40964;42.114;24.220;2023-06-22T11:18:08;7.25;;;6.40;;
55065;SDS011;40964;42.114;24.220;2023-06-22T11:20:34;7.50;;;6.45;;
55065;SDS011;40964;42.114;24.220;2023-06-22T11:23:03;7.78;;;6.55;;
55065;SDS011;40964;42.114;24.220;2023-06-22T11:25:30;9.38;;;6.45;;
55065;SDS011;40964;42.114;24.220;2023-06-22T11:27:56;7.90;;;6.53;;
55065;SDS011;40964;42.114;24.220;2023-06-22T11:30:21;7.07;;;6.38;;
55065;SDS011;40964;42.114;24.220;2023-06-22T11:32:47;8.52;;;6.72;;
55065;SDS011;40964;42.114;24.220;2023-06-22T11:35:13;7.03;;;6.30;;
55065;SDS011;40964;42.114;24.220;2023-06-22T11:37:38;7.97;;;6.90;;
55065;SDS011;40964;42.114;24.220;2023-06-22T11:40:04;8.27;;;6.60;;
55065;SDS011;40964;42.114;24.220;2023-06-22T11:42:31;8.25;;;6.20;;
55065;SDS011;40964;42.114;24.220;2023-06-22T11:44:57;7.70;;;6.45;;
55065;SDS011;40964;42.114;24.220;2023-06-22T11:47:22;7.07;;;6.35;;
55065;SDS011;40964;42.114;24.220;2023-06-22T11:49:48;8.55;;;6.78;;
55065;SDS011;40964;42.114;24.220;2023-06-22T11:52:13;7.43;;;6.60;;
55065;SDS011;40964;42.114;24.220;2023-06-22T11:54:38;8.85;;;6.68;;
55065;SDS011;40964;42.114;24.220;2023-06-22T11:57:04;8.30;;;6.65;;
55065;SDS011;40964;42.114;24.220;2023-06-22T11:59:29;7.82;;;6.60;;
55065;SDS011;40964;42.114;24.220;2023-06-22T12:01:55;9.32;;;6.88;;
55065;SDS011;40964;42.114;24.220;2023-06-22T12:04:20;10.23;;;7.30;;
55065;SDS011;40964;42.114;24.220;2023-06-22T12:06:46;7.28;;;6.05;;
55065;SDS011;40964;42.114;24.220;2023-06-22T12:09:11;7.85;;;6.75;;
55065;SDS011;40964;42.114;24.220;2023-06-22T12:11:38;7.95;;;6.40;;
55065;SDS011;40964;42.114;24.220;2023-06-22T12:14:04;7.38;;;6.20;;
55065;SDS011;40964;42.114;24.220;2023-06-22T12:16:31;8.18;;;7.05;;
55065;SDS011;40964;42.114;24.220;2023-06-22T12:18:56;6.78;;;6.07;;
55065;SDS011;40964;42.114;24.220;2023-06-22T12:21:22;8.73;;;6.20;;
55065;SDS011;40964;42.114;24.220;2023-06-22T12:23:47;8.88;;;6.78;;
55065;SDS011;40964;42.114;24.220;2023-06-22T12:26:13;7.15;;;6.32;;
55065;SDS011;40964;42.114;24.220;2023-06-22T12:28:38;8.18;;;7.03;;
55065;SDS011;40964;42.114;24.220;2023-06-22T12:31:04;9.25;;;6.80;;
55065;SDS011;40964;42.114;24.220;2023-06-22T12:33:29;8.00;;;6.57;;
55065;SDS011;40964;42.114;24.220;2023-06-22T12:35:55;7.75;;;6.75;;
55065;SDS011;40964;42.114;24.220;2023-06-22T12:38:21;9.25;;;7.95;;
55065;SDS011;40964;42.114;24.220;2023-06-22T12:40:47;10.32;;;7.18;;
55065;SDS011;40964;42.114;24.220;2023-06-22T12:43:14;8.77;;;7.07;;
55065;SDS011;40964;42.114;24.220;2023-06-22T12:45:40;10.57;;;7.90;;
55065;SDS011;40964;42.114;24.220;2023-06-22T12:48:05;16.13;;;9.82;;
55065;SDS011;40964;42.114;24.220;2023-06-22T12:50:31;10.60;;;7.97;;
55065;SDS011;40964;42.114;24.220;2023-06-22T12:52:56;11.70;;;8.25;;
55065;SDS011;40964;42.114;24.220;2023-06-22T12:55:22;10.30;;;8.30;;
55065;SDS011;40964;42.114;24.220;2023-06-22T12:57:47;10.80;;;7.72;;
55065;SDS011;40964;42.114;24.220;2023-06-22T13:00:13;9.45;;;7.95;;
55065;SDS011;40964;42.114;24.220;2023-06-22T13:02:38;11.27;;;7.95;;
55065;SDS011;40964;42.114;24.220;2023-06-22T13:05:04;9.07;;;7.60;;
55065;SDS011;40964;42.114;24.220;2023-06-22T13:07:31;10.50;;;8.10;;
55065;SDS011;40964;42.114;24.220;2023-06-22T13:09:56;11.88;;;9.32;;
55065;SDS011;40964;42.114;24.220;2023-06-22T13:12:21;8.63;;;7.10;;
55065;SDS011;40964;42.114;24.220;2023-06-22T13:14:48;8.70;;;7.45;;
55065;SDS011;40964;42.114;24.220;2023-06-22T13:17:14;10.95;;;7.00;;
55065;SDS011;40964;42.114;24.220;2023-06-22T13:19:40;7.75;;;6.93;;
55065;SDS011;40964;42.114;24.220;2023-06-22T13:22:09;7.72;;;6.75;;
55065;SDS011;40964;42.114;24.220;2023-06-22T13:24:54;7.88;;;6.90;;
55065;SDS011;40964;42.114;24.220;2023-06-22T13:27:20;8.30;;;6.95;;
55065;SDS011;40964;42.114;24.220;2023-06-22T13:29:45;11.60;;;7.25;;
55065;SDS011;40964;42.114;24.220;2023-06-22T13:32:11;9.68;;;6.70;;
55065;SDS011;40964;42.114;24.220;2023-06-22T13:34:36;9.30;;;6.97;;
55065;SDS011;40964;42.114;24.220;2023-06-22T13:37:02;9.32;;;6.72;;
55065;SDS011;40964;42.114;24.220;2023-06-22T13:39:27;8.90;;;6.97;;
55065;SDS011;40964;42.114;24.220;2023-06-22T13:41:52;10.05;;;7.10;;
55065;SDS011;40964;42.114;24.220;2023-06-22T13:44:18;9.00;;;7.05;;
55065;SDS011;40964;42.114;24.220;2023-06-22T13:46:43;12.20;;;6.90;;
55065;SDS011;40964;42.114;24.220;2023-06-22T13:49:09;8.23;;;7.05;;
55065;SDS011;40964;42.114;24.220;2023-06-22T13:51:35;10.25;;;7.30;;
55065;SDS011;40964;42.114;24.220;2023-06-22T13:54:01;9.32;;;7.28;;
55065;SDS011;40964;42.114;24.220;2023-06-22T13:56:26;11.55;;;6.72;;
55065;SDS011;40964;42.114;24.220;2023-06-22T13:58:52;7.63;;;6.82;;
55065;SDS011;40964;42.114;24.220;2023-06-22T14:01:17;7.95;;;7.15;;
55065;SDS011;40964;42.114;24.220;2023-06-22T14:03:43;9.43;;;7.18;;
55065;SDS011;40964;42.114;24.220;2023-06-22T14:06:10;10.63;;;7.10;;
55065;SDS011;40964;42.114;24.220;2023-06-22T14:08:37;9.55;;;7.28;;
55065;SDS011;40964;42.114;24.220;2023-06-22T14:11:02;9.60;;;6.38;;
55065;SDS011;40964;42.114;24.220;2023-06-22T14:13:28;10.68;;;6.22;;
55065;SDS011;40964;42.114;24.220;2023-06-22T14:15:53;8.48;;;6.32;;
55065;SDS011;40964;42.114;24.220;2023-06-22T14:18:19;8.30;;;6.28;;
55065;SDS011;40964;42.114;24.220;2023-06-22T14:20:44;11.68;;;6.97;;
55065;SDS011;40964;42.114;24.220;2023-06-22T14:23:11;7.93;;;6.38;;
55065;SDS011;40964;42.114;24.220;2023-06-22T14:25:36;8.57;;;6.82;;
55065;SDS011;40964;42.114;24.220;2023-06-22T14:28:02;10.13;;;6.50;;
55065;SDS011;40964;42.114;24.220;2023-06-22T14:30:27;7.43;;;6.28;;